sensor_id;sensor_type;location;lat;lon;timestamp;pressure;altitude;pressure_sealevel;temperature;humidity
22261;BME280;11299;43.202;27.920;2023-04-07T00:00:54;101070.00;;;6.86;100.00
22261;BME280;11299;43.202;27.920;2023-04-07T00:03:20;101000.09;;;6.38;100.00
22261;BME280;11299;43.202;27.920;2023-04-07T00:05:46;101051.09;;;6.65;100.00
22261;BME280;11299;43.202;27.920;2023-04-07T00:08:11;100986.25;;;6.20;100.00
22261;BME280;11299;43.202;27.920;2023-04-07T00:10:37;100919.00;;;5.98;100.00
22261;BME280;11299;43.202;27.920;2023-04-07T00:13:02;101044.72;;;6.71;100.00
22261;BME280;11299;43.202;27.920;2023-04-07T00:15:28;101042.13;;;6.45;100.00
22261;BME280;11299;43.202;27.920;2023-04-07T00:17:53;100872.94;;;5.55;100.00
22261;BME280;11299;43.202;27.920;2023-04-07T00:20:19;100934.56;;;6.10;100.00
22261;BME280;11299;43.202;27.920;2023-04-07T00:22:44;101068.66;;;6.95;100.00
22261;BME280;11299;43.202;27.920;2023-04-07T00:25:10;101063.16;;;6.95;100.00
22261;BME280;11299;43.202;27.920;2023-04-07T00:27:36;101060.84;;;6.92;100.00
22261;BME280;11299;43.202;27.920;2023-04-07T00:30:02;101072.91;;;6.91;100.00
22261;BME280;11299;43.202;27.920;2023-04-07T00:32:28;100949.56;;;6.08;100.00
22261;BME280;11299;43.202;27.920;2023-04-07T00:34:53;101063.06;;;6.77;100.00
22261;BME280;11299;43.202;27.920;2023-04-07T00:37:19;101053.75;;;6.78;100.00
22261;BME280;11299;43.202;27.920;2023-04-07T00:39:45;101071.31;;;6.77;100.00
22261;BME280;11299;43.202;27.920;2023-04-07T00:42:11;101037.59;;;6.57;100.00
22261;BME280;11299;43.202;27.920;2023-04-07T00:44:36;100937.38;;;5.97;100.00
22261;BME280;11299;43.202;27.920;2023-04-07T00:47:02;101050.63;;;6.68;100.00
22261;BME280;11299;43.202;27.920;2023-04-07T00:49:28;101066.44;;;6.79;100.00
22261;BME280;11299;43.202;27.920;2023-04-07T00:51:57;101051.72;;;6.67;100.00
22261;BME280;11299;43.202;27.920;2023-04-07T00:54:23;101066.63;;;6.78;100.00
22261;BME280;11299;43.202;27.920;2023-04-07T00:56:49;101031.63;;;6.66;100.00
22261;BME280;11299;43.202;27.920;2023-04-07T00:59:15;101022.75;;;6.64;100.00
22261;BME280;11299;43.202;27.920;2023-04-07T01:07:04;101062.19;;;6.83;100.00
22261;BME280;11299;43.202;27.920;2023-04-07T01:09:45;101003.72;;;6.70;100.00
22261;BME280;11299;43.202;27.920;2023-04-07T01:12:33;101043.13;;;6.88;100.00
22261;BME280;11299;43.202;27.920;2023-04-07T01:15:06;100916.59;;;6.14;100.00
22261;BME280;11299;43.202;27.920;2023-04-07T01:17:34;100995.25;;;6.71;100.00
22261;BME280;11299;43.202;27.920;2023-04-07T01:20:03;101032.28;;;6.93;100.00
22261;BME280;11299;43.202;27.920;2023-04-07T01:28:39;101023.38;;;6.98;100.00
22261;BME280;11299;43.202;27.920;2023-04-07T01:31:08;100998.13;;;6.83;100.00
22261;BME280;11299;43.202;27.920;2023-04-07T01:33:36;100960.91;;;6.18;100.00
22261;BME280;11299;43.202;27.920;2023-04-07T01:36:02;100989.22;;;6.56;100.00
22261;BME280;11299;43.202;27.920;2023-04-07T01:38:29;101029.81;;;6.85;100.00
22261;BME280;11299;43.202;27.920;2023-04-07T01:40:56;100922.28;;;6.44;100.00
22261;BME280;11299;43.202;27.920;2023-04-07T01:43:23;100889.88;;;6.28;100.00
22261;BME280;11299;43.202;27.920;2023-04-07T01:45:50;101018.44;;;7.06;100.00
22261;BME280;11299;43.202;27.920;2023-04-07T01:48:16;100971.47;;;6.83;100.00
22261;BME280;11299;43.202;27.920;2023-04-07T01:50:43;101024.28;;;7.16;100.00
22261;BME280;11299;43.202;27.920;2023-04-07T01:53:10;100914.25;;;6.49;100.00
22261;BME280;11299;43.202;27.920;2023-04-07T01:55:36;100987.44;;;6.93;100.00
22261;BME280;11299;43.202;27.920;2023-04-07T01:58:06;100925.66;;;6.46;100.00
22261;BME280;11299;43.202;27.920;2023-04-07T02:00:32;100838.22;;;6.12;100.00
22261;BME280;11299;43.202;27.920;2023-04-07T02:03:06;101016.03;;;7.16;100.00
22261;BME280;11299;43.202;27.920;2023-04-07T02:05:35;100962.63;;;6.81;100.00
22261;BME280;11299;43.202;27.920;2023-04-07T02:08:04;101019.88;;;7.15;100.00
22261;BME280;11299;43.202;27.920;2023-04-07T02:10:34;101021.25;;;7.00;100.00
22261;BME280;11299;43.202;27.920;2023-04-07T02:13:04;101006.03;;;6.97;100.00
22261;BME280;11299;43.202;27.920;2023-04-07T02:15:30;101025.78;;;7.12;100.00
22261;BME280;11299;43.202;27.920;2023-04-07T02:17:57;100996.66;;;6.80;100.00
22261;BME280;11299;43.202;27.920;2023-04-07T02:20:23;101011.88;;;7.07;100.00
22261;BME280;11299;43.202;27.920;2023-04-07T02:22:49;100983.19;;;6.97;100.00
22261;BME280;11299;43.202;27.920;2023-04-07T02:25:26;101015.06;;;7.04;100.00
22261;BME280;11299;43.202;27.920;2023-04-07T02:27:53;100979.72;;;6.83;100.00
22261;BME280;11299;43.202;27.920;2023-04-07T02:30:19;100962.69;;;6.68;100.00
22261;BME280;11299;43.202;27.920;2023-04-07T02:32:45;101042.44;;;6.93;100.00
22261;BME280;11299;43.202;27.920;2023-04-07T02:35:11;101047.00;;;6.74;100.00
22261;BME280;11299;43.202;27.920;2023-04-07T02:37:37;101036.41;;;6.78;100.00
22261;BME280;11299;43.202;27.920;2023-04-07T02:40:04;101046.84;;;6.69;100.00
22261;BME280;11299;43.202;27.920;2023-04-07T02:42:30;101036.09;;;6.61;100.00
22261;BME280;11299;43.202;27.920;2023-04-07T02:44:55;100987.06;;;6.27;100.00
22261;BME280;11299;43.202;27.920;2023-04-07T02:47:21;101050.13;;;6.84;100.00
22261;BME280;11299;43.202;27.920;2023-04-07T02:49:47;100996.84;;;6.47;100.00
22261;BME280;11299;43.202;27.920;2023-04-07T02:52:12;101074.59;;;6.92;100.00
22261;BME280;11299;43.202;27.920;2023-04-07T02:54:38;101005.31;;;6.52;100.00
22261;BME280;11299;43.202;27.920;2023-04-07T02:57:03;101082.63;;;6.94;100.00
22261;BME280;11299;43.202;27.920;2023-04-07T02:59:28;101060.81;;;6.68;100.00
22261;BME280;11299;43.202;27.920;2023-04-07T03:01:54;101030.84;;;6.53;100.00
22261;BME280;11299;43.202;27.920;2023-04-07T03:04:20;100915.25;;;5.86;100.00
22261;BME280;11299;43.202;27.920;2023-04-07T03:06:46;101046.13;;;6.49;100.00
22261;BME280;11299;43.202;27.920;2023-04-07T03:09:11;100929.59;;;5.81;100.00
22261;BME280;11299;43.202;27.920;2023-04-07T03:11:37;101079.25;;;6.54;100.00
22261;BME280;11299;43.202;27.920;2023-04-07T03:14:03;101051.56;;;6.55;100.00
22261;BME280;11299;43.202;27.920;2023-04-07T03:16:28;100998.91;;;6.21;100.00
22261;BME280;11299;43.202;27.920;2023-04-07T03:18:54;101065.53;;;6.47;100.00
22261;BME280;11299;43.202;27.920;2023-04-07T03:21:20;101017.53;;;6.19;100.00
22261;BME280;11299;43.202;27.920;2023-04-07T03:23:45;101044.47;;;6.35;100.00
22261;BME280;11299;43.202;27.920;2023-04-07T03:26:11;101018.34;;;6.19;100.00
22261;BME280;11299;43.202;27.920;2023-04-07T03:28:36;100988.63;;;6.10;100.00
22261;BME280;11299;43.202;27.920;2023-04-07T03:31:02;100972.44;;;5.95;100.00
22261;BME280;11299;43.202;27.920;2023-04-07T03:33:27;101085.81;;;6.53;100.00
22261;BME280;11299;43.202;27.920;2023-04-07T03:35:53;100998.63;;;5.98;100.00
22261;BME280;11299;43.202;27.920;2023-04-07T03:38:18;101085.59;;;6.54;100.00
22261;BME280;11299;43.202;27.920;2023-04-07T03:40:44;101044.94;;;6.32;100.00
22261;BME280;11299;43.202;27.920;2023-04-07T03:43:10;101079.50;;;6.46;100.00
22261;BME280;11299;43.202;27.920;2023-04-07T03:45:43;101077.56;;;6.53;100.00
22261;BME280;11299;43.202;27.920;2023-04-07T03:48:08;101093.72;;;6.74;100.00
22261;BME280;11299;43.202;27.920;2023-04-07T03:50:40;101047.38;;;6.46;100.00
22261;BME280;11299;43.202;27.920;2023-04-07T03:53:06;101084.84;;;6.72;100.00
22261;BME280;11299;43.202;27.920;2023-04-07T03:55:32;101080.66;;;6.70;100.00
22261;BME280;11299;43.202;27.920;2023-04-07T03:57:58;101100.06;;;6.81;100.00
22261;BME280;11299;43.202;27.920;2023-04-07T04:00:24;101109.34;;;6.80;100.00
22261;BME280;11299;43.202;27.920;2023-04-07T04:02:50;101081.31;;;6.65;100.00
22261;BME280;11299;43.202;27.920;2023-04-07T04:05:15;101099.84;;;6.76;100.00
22261;BME280;11299;43.202;27.920;2023-04-07T04:07:41;101103.78;;;6.93;100.00
22261;BME280;11299;43.202;27.920;2023-04-07T04:10:07;101099.34;;;6.92;100.00
22261;BME280;11299;43.202;27.920;2023-04-07T04:12:32;101094.09;;;6.84;100.00
22261;BME280;11299;43.202;27.920;2023-04-07T04:14:58;101116.00;;;6.97;100.00
22261;BME280;11299;43.202;27.920;2023-04-07T04:17:24;101066.53;;;6.66;100.00
22261;BME280;11299;43.202;27.920;2023-04-07T04:19:49;101110.91;;;7.01;100.00
22261;BME280;11299;43.202;27.920;2023-04-07T04:22:15;101071.47;;;6.51;100.00
22261;BME280;11299;43.202;27.920;2023-04-07T04:24:41;101126.91;;;7.17;100.00
22261;BME280;11299;43.202;27.920;2023-04-07T04:27:07;101089.69;;;6.83;100.00
22261;BME280;11299;43.202;27.920;2023-04-07T04:29:32;101124.97;;;7.17;100.00
22261;BME280;11299;43.202;27.920;2023-04-07T04:31:58;100997.72;;;6.04;100.00
22261;BME280;11299;43.202;27.920;2023-04-07T04:34:24;101130.75;;;7.09;100.00
22261;BME280;11299;43.202;27.920;2023-04-07T04:36:49;101140.66;;;7.17;100.00
22261;BME280;11299;43.202;27.920;2023-04-07T04:39:15;101033.44;;;6.48;100.00
22261;BME280;11299;43.202;27.920;2023-04-07T04:41:40;101027.13;;;6.41;100.00
22261;BME280;11299;43.202;27.920;2023-04-07T04:44:06;101116.38;;;7.07;100.00
22261;BME280;11299;43.202;27.920;2023-04-07T04:46:32;101073.00;;;6.78;100.00
22261;BME280;11299;43.202;27.920;2023-04-07T04:48:57;101160.38;;;7.07;100.00
22261;BME280;11299;43.202;27.920;2023-04-07T04:51:23;101056.66;;;6.45;100.00
22261;BME280;11299;43.202;27.920;2023-04-07T04:53:48;101144.28;;;7.11;100.00
22261;BME280;11299;43.202;27.920;2023-04-07T04:56:14;101147.59;;;7.19;100.00
22261;BME280;11299;43.202;27.920;2023-04-07T04:58:40;100989.16;;;6.25;100.00
22261;BME280;11299;43.202;27.920;2023-04-07T05:01:10;101171.69;;;7.24;100.00
22261;BME280;11299;43.202;27.920;2023-04-07T05:03:36;101134.69;;;6.89;100.00
22261;BME280;11299;43.202;27.920;2023-04-07T05:06:02;101145.47;;;7.21;100.00
22261;BME280;11299;43.202;27.920;2023-04-07T05:08:27;101116.78;;;7.11;100.00
22261;BME280;11299;43.202;27.920;2023-04-07T05:10:53;101177.34;;;7.35;100.00
22261;BME280;11299;43.202;27.920;2023-04-07T05:13:19;101081.69;;;7.06;100.00
22261;BME280;11299;43.202;27.920;2023-04-07T05:15:45;101144.38;;;7.53;100.00
22261;BME280;11299;43.202;27.920;2023-04-07T05:18:10;101122.72;;;7.39;100.00
22261;BME280;11299;43.202;27.920;2023-04-07T05:20:36;101073.16;;;7.14;100.00
22261;BME280;11299;43.202;27.920;2023-04-07T05:23:02;101183.00;;;7.72;100.00
22261;BME280;11299;43.202;27.920;2023-04-07T05:25:27;101045.78;;;7.01;100.00
22261;BME280;11299;43.202;27.920;2023-04-07T05:27:53;101062.63;;;7.11;100.00
22261;BME280;11299;43.202;27.920;2023-04-07T05:30:18;100872.75;;;5.95;100.00
22261;BME280;11299;43.202;27.920;2023-04-07T05:32:44;101116.47;;;7.50;100.00
22261;BME280;11299;43.202;27.920;2023-04-07T05:35:10;101191.06;;;7.91;100.00
22261;BME280;11299;43.202;27.920;2023-04-07T05:37:35;101128.22;;;7.63;100.00
22261;BME280;11299;43.202;27.920;2023-04-07T05:40:01;101144.78;;;7.82;100.00
22261;BME280;11299;43.202;27.920;2023-04-07T05:42:27;101167.75;;;7.94;100.00
22261;BME280;11299;43.202;27.920;2023-04-07T05:44:52;101148.72;;;7.92;98.95
22261;BME280;11299;43.202;27.920;2023-04-07T05:47:18;101161.28;;;8.06;98.02
22261;BME280;11299;43.202;27.920;2023-04-07T05:49:43;101150.38;;;7.93;98.14
22261;BME280;11299;43.202;27.920;2023-04-07T05:52:12;101151.13;;;8.07;96.97
22261;BME280;11299;43.202;27.920;2023-04-07T05:54:38;101114.19;;;7.72;96.83
22261;BME280;11299;43.202;27.920;2023-04-07T05:57:07;101029.22;;;7.32;97.76
22261;BME280;11299;43.202;27.920;2023-04-07T05:59:33;101151.72;;;8.09;99.03
22261;BME280;11299;43.202;27.920;2023-04-07T06:01:59;101162.47;;;8.17;99.10
22261;BME280;11299;43.202;27.920;2023-04-07T06:04:24;101053.13;;;7.56;99.63
22261;BME280;11299;43.202;27.920;2023-04-07T06:06:50;101186.72;;;8.51;100.00
22261;BME280;11299;43.202;27.920;2023-04-07T06:09:21;101132.59;;;7.96;99.18
22261;BME280;11299;43.202;27.920;2023-04-07T06:11:47;101189.28;;;8.46;100.00
22261;BME280;11299;43.202;27.920;2023-04-07T06:14:13;101196.34;;;8.60;100.00
22261;BME280;11299;43.202;27.920;2023-04-07T06:16:38;101152.03;;;8.43;100.00
22261;BME280;11299;43.202;27.920;2023-04-07T06:19:05;101143.16;;;8.41;100.00
22261;BME280;11299;43.202;27.920;2023-04-07T06:21:32;101184.97;;;8.57;100.00
22261;BME280;11299;43.202;27.920;2023-04-07T06:23:58;101144.28;;;8.34;100.00
22261;BME280;11299;43.202;27.920;2023-04-07T06:26:23;101117.09;;;8.19;100.00
22261;BME280;11299;43.202;27.920;2023-04-07T06:28:49;101225.84;;;8.78;100.00
22261;BME280;11299;43.202;27.920;2023-04-07T06:31:16;101218.66;;;8.95;100.00
22261;BME280;11299;43.202;27.920;2023-04-07T06:33:42;101173.59;;;8.83;100.00
22261;BME280;11299;43.202;27.920;2023-04-07T06:36:08;101221.97;;;9.15;100.00
22261;BME280;11299;43.202;27.920;2023-04-07T06:38:33;101217.22;;;9.22;100.00
22261;BME280;11299;43.202;27.920;2023-04-07T06:40:59;101225.03;;;9.55;99.60
22261;BME280;11299;43.202;27.920;2023-04-07T06:43:24;101221.41;;;9.84;98.51
22261;BME280;11299;43.202;27.920;2023-04-07T06:45:50;101174.72;;;9.52;100.00
22261;BME280;11299;43.202;27.920;2023-04-07T06:48:15;101065.81;;;8.84;100.00
22261;BME280;11299;43.202;27.920;2023-04-07T06:50:45;101164.13;;;9.38;100.00
22261;BME280;11299;43.202;27.920;2023-04-07T06:53:10;101190.69;;;9.50;98.49
22261;BME280;11299;43.202;27.920;2023-04-07T06:55:36;101203.06;;;9.60;100.00
22261;BME280;11299;43.202;27.920;2023-04-07T06:58:01;101172.44;;;9.49;99.39
22261;BME280;11299;43.202;27.920;2023-04-07T07:00:27;101120.97;;;9.14;99.81
22261;BME280;11299;43.202;27.920;2023-04-07T07:02:55;101198.91;;;9.69;98.20
22261;BME280;11299;43.202;27.920;2023-04-07T07:05:21;101197.69;;;9.65;97.41
22261;BME280;11299;43.202;27.920;2023-04-07T07:07:47;101179.47;;;9.75;97.29
22261;BME280;11299;43.202;27.920;2023-04-07T07:10:13;101165.84;;;9.50;94.84
22261;BME280;11299;43.202;27.920;2023-04-07T07:12:39;101126.63;;;9.72;91.17
22261;BME280;11299;43.202;27.920;2023-04-07T07:15:05;101056.38;;;9.68;82.67
22261;BME280;11299;43.202;27.920;2023-04-07T07:17:30;101228.56;;;10.61;78.88
22261;BME280;11299;43.202;27.920;2023-04-07T07:19:56;101205.59;;;10.60;85.07
22261;BME280;11299;43.202;27.920;2023-04-07T07:22:21;101219.50;;;10.88;85.65
22261;BME280;11299;43.202;27.920;2023-04-07T07:24:47;101243.75;;;11.09;76.00
22261;BME280;11299;43.202;27.920;2023-04-07T07:27:12;101138.66;;;10.86;73.39
22261;BME280;11299;43.202;27.920;2023-04-07T07:29:38;101165.63;;;11.19;70.19
22261;BME280;11299;43.202;27.920;2023-04-07T07:32:03;101237.16;;;11.78;68.07
22261;BME280;11299;43.202;27.920;2023-04-07T07:34:29;101125.34;;;11.11;67.98
22261;BME280;11299;43.202;27.920;2023-04-07T07:36:54;101192.75;;;11.62;66.80
22261;BME280;11299;43.202;27.920;2023-04-07T07:39:20;101210.38;;;11.56;65.21
22261;BME280;11299;43.202;27.920;2023-04-07T07:41:45;101170.59;;;11.05;64.67
22261;BME280;11299;43.202;27.920;2023-04-07T07:44:11;101121.97;;;10.81;64.13
22261;BME280;11299;43.202;27.920;2023-04-07T07:46:36;101166.47;;;10.91;63.39
22261;BME280;11299;43.202;27.920;2023-04-07T07:49:02;101260.63;;;11.48;64.17
22261;BME280;11299;43.202;27.920;2023-04-07T07:51:29;101193.19;;;10.86;64.74
22261;BME280;11299;43.202;27.920;2023-04-07T07:53:54;101223.03;;;10.72;64.49
22261;BME280;11299;43.202;27.920;2023-04-07T07:56:20;101249.69;;;11.01;63.46
22261;BME280;11299;43.202;27.920;2023-04-07T07:58:46;101120.03;;;10.42;63.19
22261;BME280;11299;43.202;27.920;2023-04-07T08:01:12;101261.75;;;11.35;63.60
22261;BME280;11299;43.202;27.920;2023-04-07T08:03:37;101228.47;;;11.47;62.91
22261;BME280;11299;43.202;27.920;2023-04-07T08:06:03;101204.19;;;11.37;61.11
22261;BME280;11299;43.202;27.920;2023-04-07T08:08:28;101157.69;;;11.11;60.05
22261;BME280;11299;43.202;27.920;2023-04-07T08:10:54;101236.78;;;11.47;59.14
22261;BME280;11299;43.202;27.920;2023-04-07T08:13:19;101283.31;;;11.73;59.73
22261;BME280;11299;43.202;27.920;2023-04-07T08:15:45;101162.06;;;11.07;59.48
22261;BME280;11299;43.202;27.920;2023-04-07T08:18:10;101063.31;;;10.68;59.89
22261;BME280;11299;43.202;27.920;2023-04-07T08:20:36;101256.88;;;11.82;60.56
22261;BME280;11299;43.202;27.920;2023-04-07T08:23:02;101098.03;;;10.75;60.03
22261;BME280;11299;43.202;27.920;2023-04-07T08:25:28;101231.53;;;11.62;59.86
22261;BME280;11299;43.202;27.920;2023-04-07T08:27:53;101251.09;;;12.00;59.10
22261;BME280;11299;43.202;27.920;2023-04-07T08:30:20;101187.16;;;11.45;58.90
22261;BME280;11299;43.202;27.920;2023-04-07T08:32:46;101240.00;;;11.83;58.56
22261;BME280;11299;43.202;27.920;2023-04-07T08:35:12;101169.13;;;11.71;59.69
22261;BME280;11299;43.202;27.920;2023-04-07T08:37:38;101266.25;;;12.25;58.41
22261;BME280;11299;43.202;27.920;2023-04-07T08:40:05;101156.34;;;11.70;58.04
22261;BME280;11299;43.202;27.920;2023-04-07T08:42:33;101179.34;;;11.70;57.48
22261;BME280;11299;43.202;27.920;2023-04-07T08:45:06;101242.38;;;12.08;58.17
22261;BME280;11299;43.202;27.920;2023-04-07T08:47:33;101205.00;;;11.94;58.31
22261;BME280;11299;43.202;27.920;2023-04-07T08:50:10;101246.25;;;12.40;58.66
22261;BME280;11299;43.202;27.920;2023-04-07T08:52:44;101137.84;;;11.59;57.04
22261;BME280;11299;43.202;27.920;2023-04-07T08:55:10;101225.41;;;12.04;58.04
22261;BME280;11299;43.202;27.920;2023-04-07T08:57:36;101123.06;;;11.53;57.20
22261;BME280;11299;43.202;27.920;2023-04-07T09:00:03;101287.25;;;12.38;57.67
22261;BME280;11299;43.202;27.920;2023-04-07T09:02:32;101213.97;;;12.01;56.51
22261;BME280;11299;43.202;27.920;2023-04-07T09:04:58;101198.16;;;11.85;57.42
22261;BME280;11299;43.202;27.920;2023-04-07T09:07:23;101155.88;;;11.73;56.83
22261;BME280;11299;43.202;27.920;2023-04-07T09:09:49;101258.00;;;12.14;56.62
22261;BME280;11299;43.202;27.920;2023-04-07T09:12:15;101272.13;;;11.96;57.61
22261;BME280;11299;43.202;27.920;2023-04-07T09:14:40;101248.84;;;11.97;58.29
22261;BME280;11299;43.202;27.920;2023-04-07T09:17:06;101254.78;;;11.89;57.86
22261;BME280;11299;43.202;27.920;2023-04-07T09:19:32;101267.44;;;11.85;58.50
22261;BME280;11299;43.202;27.920;2023-04-07T09:21:57;101253.78;;;11.95;59.24
22261;BME280;11299;43.202;27.920;2023-04-07T09:24:27;101286.41;;;12.21;60.28
22261;BME280;11299;43.202;27.920;2023-04-07T09:27:14;101180.38;;;11.53;58.48
22261;BME280;11299;43.202;27.920;2023-04-07T09:29:42;101303.56;;;12.35;58.98
22261;BME280;11299;43.202;27.920;2023-04-07T09:32:08;101293.28;;;12.68;58.84
22261;BME280;11299;43.202;27.920;2023-04-07T09:34:40;101249.56;;;12.59;58.75
22261;BME280;11299;43.202;27.920;2023-04-07T09:37:06;101228.16;;;12.54;59.01
22261;BME280;11299;43.202;27.920;2023-04-07T09:39:47;101242.72;;;12.11;59.80
22261;BME280;11299;43.202;27.920;2023-04-07T09:42:13;101293.38;;;12.57;60.08
22261;BME280;11299;43.202;27.920;2023-04-07T09:44:39;101297.34;;;12.77;58.35
22261;BME280;11299;43.202;27.920;2023-04-07T09:47:07;101310.66;;;12.97;58.55
22261;BME280;11299;43.202;27.920;2023-04-07T09:49:51;101264.22;;;13.31;57.22
22261;BME280;11299;43.202;27.920;2023-04-07T09:52:18;101293.88;;;13.95;57.40
22261;BME280;11299;43.202;27.920;2023-04-07T09:54:47;101290.00;;;13.96;56.06
22261;BME280;11299;43.202;27.920;2023-04-07T09:57:13;101277.38;;;13.83;56.35
22261;BME280;11299;43.202;27.920;2023-04-07T09:59:40;101257.19;;;13.45;57.56
22261;BME280;11299;43.202;27.920;2023-04-07T10:02:13;101277.84;;;13.75;58.02
22261;BME280;11299;43.202;27.920;2023-04-07T10:04:38;101281.78;;;13.79;56.47
22261;BME280;11299;43.202;27.920;2023-04-07T10:07:05;101247.59;;;13.84;56.21
22261;BME280;11299;43.202;27.920;2023-04-07T10:09:31;101302.47;;;14.20;56.18
22261;BME280;11299;43.202;27.920;2023-04-07T10:11:57;101284.94;;;14.19;56.00
22261;BME280;11299;43.202;27.920;2023-04-07T10:14:30;101220.03;;;13.77;56.15
22261;BME280;11299;43.202;27.920;2023-04-07T10:16:58;101192.53;;;13.28;56.00
22261;BME280;11299;43.202;27.920;2023-04-07T10:19:24;101319.91;;;13.84;56.77
22261;BME280;11299;43.202;27.920;2023-04-07T10:21:53;101312.66;;;13.83;57.22
22261;BME280;11299;43.202;27.920;2023-04-07T10:26:57;101238.69;;;13.55;58.12
22261;BME280;11299;43.202;27.920;2023-04-07T10:29:24;101310.97;;;13.82;57.97
22261;BME280;11299;43.202;27.920;2023-04-07T10:31:51;101323.88;;;13.66;57.85
22261;BME280;11299;43.202;27.920;2023-04-07T10:37:23;101326.63;;;13.23;59.93
22261;BME280;11299;43.202;27.920;2023-04-07T10:39:51;101307.28;;;13.28;60.79
22261;BME280;11299;43.202;27.920;2023-04-07T10:42:49;101296.41;;;13.48;59.80
22261;BME280;11299;43.202;27.920;2023-04-07T10:45:15;101247.94;;;13.17;59.31
22261;BME280;11299;43.202;27.920;2023-04-07T10:50:28;101298.19;;;13.81;61.15
22261;BME280;11299;43.202;27.920;2023-04-07T10:53:09;101304.81;;;13.80;59.12
22261;BME280;11299;43.202;27.920;2023-04-07T10:55:48;101331.19;;;13.51;59.19
22261;BME280;11299;43.202;27.920;2023-04-07T10:58:24;100977.59;;;11.51;59.83
22261;BME280;11299;43.202;27.920;2023-04-07T11:03:56;101309.63;;;13.84;60.05
22261;BME280;11299;43.202;27.920;2023-04-07T11:06:22;101289.78;;;13.76;58.85
22261;BME280;11299;43.202;27.920;2023-04-07T11:08:48;101316.81;;;13.80;59.20
22261;BME280;11299;43.202;27.920;2023-04-07T11:11:40;101245.34;;;13.54;58.63
22261;BME280;11299;43.202;27.920;2023-04-07T11:14:04;101279.28;;;13.56;58.03
22261;BME280;11299;43.202;27.920;2023-04-07T11:16:40;101219.72;;;13.47;57.86
22261;BME280;11299;43.202;27.920;2023-04-07T11:19:06;101302.78;;;13.97;58.11
22261;BME280;11299;43.202;27.920;2023-04-07T11:21:32;101298.84;;;13.93;58.39
22261;BME280;11299;43.202;27.920;2023-04-07T11:23:58;101257.72;;;13.95;57.95
22261;BME280;11299;43.202;27.920;2023-04-07T11:26:23;101280.19;;;14.15;58.22
22261;BME280;11299;43.202;27.920;2023-04-07T11:28:51;101300.41;;;14.69;59.04
22261;BME280;11299;43.202;27.920;2023-04-07T11:31:24;101301.94;;;14.86;57.70
22261;BME280;11299;43.202;27.920;2023-04-07T11:33:52;101263.50;;;14.83;56.04
22261;BME280;11299;43.202;27.920;2023-04-07T11:36:36;101295.00;;;15.36;56.65
22261;BME280;11299;43.202;27.920;2023-04-07T11:39:02;101285.06;;;15.50;54.01
22261;BME280;11299;43.202;27.920;2023-04-07T11:41:31;101294.06;;;15.20;53.72
22261;BME280;11299;43.202;27.920;2023-04-07T11:44:09;101299.44;;;15.32;54.25
22261;BME280;11299;43.202;27.920;2023-04-07T11:46:36;101195.56;;;14.89;54.67
22261;BME280;11299;43.202;27.920;2023-04-07T11:49:16;101308.00;;;15.77;54.38
22261;BME280;11299;43.202;27.920;2023-04-07T11:51:45;101163.69;;;14.55;55.66
22261;BME280;11299;43.202;27.920;2023-04-07T11:54:11;101255.19;;;14.88;54.34
22261;BME280;11299;43.202;27.920;2023-04-07T11:56:42;101283.22;;;15.19;56.63
22261;BME280;11299;43.202;27.920;2023-04-07T11:59:08;101161.50;;;14.72;54.71
22261;BME280;11299;43.202;27.920;2023-04-07T12:01:40;101327.38;;;16.14;53.63
22261;BME280;11299;43.202;27.920;2023-04-07T12:04:06;101241.13;;;16.17;54.78
22261;BME280;11299;43.202;27.920;2023-04-07T12:06:36;101304.25;;;16.88;50.50
22261;BME280;11299;43.202;27.920;2023-04-07T12:09:07;101299.66;;;17.38;50.60
22261;BME280;11299;43.202;27.920;2023-04-07T12:11:34;101268.75;;;17.78;49.64
22261;BME280;11299;43.202;27.920;2023-04-07T12:14:01;101297.94;;;18.49;47.26
22261;BME280;11299;43.202;27.920;2023-04-07T12:16:29;101282.03;;;17.96;46.83
22261;BME280;11299;43.202;27.920;2023-04-07T12:18:55;101286.41;;;17.68;47.91
22261;BME280;11299;43.202;27.920;2023-04-07T12:21:22;101257.41;;;17.98;49.41
22261;BME280;11299;43.202;27.920;2023-04-07T12:23:49;101275.53;;;18.49;48.79
22261;BME280;11299;43.202;27.920;2023-04-07T12:26:16;101259.63;;;18.40;50.66
22261;BME280;11299;43.202;27.920;2023-04-07T12:28:41;101281.47;;;18.76;50.46
22261;BME280;11299;43.202;27.920;2023-04-07T12:31:07;101254.06;;;17.96;52.86
22261;BME280;11299;43.202;27.920;2023-04-07T12:33:32;101258.47;;;17.63;51.86
22261;BME280;11299;43.202;27.920;2023-04-07T12:35:58;101259.59;;;16.78;55.05
22261;BME280;11299;43.202;27.920;2023-04-07T12:38:23;101244.47;;;16.04;63.04
22261;BME280;11299;43.202;27.920;2023-04-07T12:40:49;101282.72;;;16.19;70.25
22261;BME280;11299;43.202;27.920;2023-04-07T12:43:15;101226.50;;;15.45;74.23
22261;BME280;11299;43.202;27.920;2023-04-07T12:45:41;101246.84;;;15.50;80.57
22261;BME280;11299;43.202;27.920;2023-04-07T12:48:07;101210.63;;;14.88;86.04
22261;BME280;11299;43.202;27.920;2023-04-07T12:50:34;101288.19;;;15.17;79.31
22261;BME280;11299;43.202;27.920;2023-04-07T12:52:59;101183.72;;;13.89;79.86
22261;BME280;11299;43.202;27.920;2023-04-07T12:55:28;101288.13;;;14.28;83.85
22261;BME280;11299;43.202;27.920;2023-04-07T12:57:53;101303.78;;;14.34;85.40
22261;BME280;11299;43.202;27.920;2023-04-07T13:00:20;101305.06;;;14.00;81.61
22261;BME280;11299;43.202;27.920;2023-04-07T13:02:45;101322.09;;;14.08;81.89